Time;durP1;ratioP1;P1;durP2;ratioP2;P2;SDS_P1;SDS_P2;PMS_P1;PMS_P2;Temp;Humidity;BMP_temperature;BMP_pressure;BME280_temperature;BME280_humidity;BME280_pressure;Samples;Min_cycle;Max_cycle;Signal;HPM_P1;HPM_P2
2022/08/28 00:02:16;;;;;;;8.25;1.55;;;;;;;16.41;71.16;100971.44;5003573;28;20033;-81
2022/08/28 00:04:42;;;;;;;5.85;1.40;;;;;;;16.27;71.82;100975.66;5007180;28;20030;-82
2022/08/28 00:07:08;;;;;;;6.25;1.52;;;;;;;16.14;72.50;100979.66;4954467;28;20054;-82
2022/08/28 00:09:34;;;;;;;4.10;2.00;;;;;;;16.13;72.44;100978.00;5001861;28;20049;-82
2022/08/28 00:12:01;;;;;;;8.00;4.30;;;;;;;16.10;72.63;100975.69;4998362;28;20050;-81
2022/08/28 00:14:27;;;;;;;15.00;5.03;;;;;;;16.12;72.68;100979.00;4978843;28;20057;-81
2022/08/28 00:16:53;;;;;;;9.63;4.57;;;;;;;16.11;72.52;100972.00;5004772;28;20093;-82
2022/08/28 00:19:21;;;;;;;6.88;3.42;;;;;;;16.18;72.39;100974.84;4975779;28;20038;-82
2022/08/28 00:21:47;;;;;;;6.57;3.30;;;;;;;16.18;72.34;100974.84;5019511;28;20038;-82
2022/08/28 00:24:13;;;;;;;5.63;2.90;;;;;;;16.17;72.23;100979.31;4983211;28;20396;-82
2022/08/28 00:29:23;;;;;;;4.13;2.65;;;;;;;16.21;71.97;100977.16;4969786;28;20042;-82
2022/08/28 00:31:50;;;;;;;12.60;4.25;;;;;;;16.23;71.68;100978.66;4991579;28;20440;-82
2022/08/28 00:34:16;;;;;;;11.10;5.57;;;;;;;16.20;71.60;100979.00;5019280;28;20062;-82
2022/08/28 00:36:41;;;;;;;14.52;7.35;;;;;;;16.10;71.89;100978.34;4946391;28;20124;-82
2022/08/28 00:39:08;;;;;;;13.23;7.55;;;;;;;15.99;72.02;100976.81;4990127;28;20030;-81
2022/08/28 00:41:37;;;;;;;7.63;3.70;;;;;;;15.95;72.06;100983.47;5004617;28;20041;-82
2022/08/28 00:44:16;;;;;;;10.13;3.65;;;;;;;15.85;71.96;100979.16;4991467;28;20041;-81
2022/08/28 00:46:47;;;;;;;2.28;1.52;;;;;;;15.78;72.30;100982.63;5000577;28;20025;-82
2022/08/28 00:49:17;;;;;;;4.45;1.25;;;;;;;15.64;72.41;100979.63;4983602;28;20491;-82
2022/08/28 00:54:32;;;;;;;4.15;1.90;;;;;;;15.46;72.91;100980.63;4999909;28;20048;-82
2022/08/28 00:57:01;;;;;;;6.63;2.20;;;;;;;15.36;73.05;100983.41;4993186;28;20136;-81
2022/08/28 00:59:27;;;;;;;3.63;1.50;;;;;;;15.36;73.33;100990.56;4972150;28;20561;-82
2022/08/28 01:01:56;;;;;;;3.65;1.55;;;;;;;15.34;73.07;100989.88;4986478;28;20166;-82
2022/08/28 01:04:26;;;;;;;4.22;1.90;;;;;;;15.28;73.39;100980.72;4965997;28;20057;-82
2022/08/28 01:06:54;;;;;;;7.25;2.03;;;;;;;15.33;73.62;100977.56;4984752;28;20117;-82
2022/08/28 01:09:23;;;;;;;3.28;1.90;;;;;;;15.41;73.26;100984.75;4960601;28;20112;-81
2022/08/28 01:11:52;;;;;;;2.88;2.25;;;;;;;15.43;73.37;100980.91;4962710;28;20041;-81
2022/08/28 01:14:21;;;;;;;4.90;1.90;;;;;;;15.41;73.55;100980.25;4992904;28;20034;-81
2022/08/28 01:16:54;;;;;;;6.28;2.25;;;;;;;15.39;73.42;100976.91;5013915;28;20551;-81
2022/08/28 01:19:42;;;;;;;2.90;1.73;;;;;;;15.43;73.33;100980.91;5008017;28;20038;-82
2022/08/28 01:22:28;;;;;;;5.85;1.90;;;;;;;15.43;73.41;100986.25;4993798;28;20125;-82
2022/08/28 01:24:56;;;;;;;1.80;1.70;;;;;;;15.43;73.54;100988.09;4980177;28;20073;-82
2022/08/28 01:27:22;;;;;;;6.18;1.80;;;;;;;15.38;73.64;100992.06;4996338;28;20034;-83
2022/08/28 01:29:49;;;;;;;3.03;1.90;;;;;;;15.36;73.59;100990.56;4992364;28;20037;-83
2022/08/28 01:32:34;;;;;;;3.33;1.73;;;;;;;15.30;73.86;100984.06;4966149;28;20405;-82
2022/08/28 01:35:01;;;;;;;5.80;1.58;;;;;;;15.23;74.13;100988.34;4997025;28;20121;-82
2022/08/28 01:37:27;;;;;;;1.92;1.40;;;;;;;15.20;74.37;100986.88;5004281;28;20117;-81
2022/08/28 01:39:53;;;;;;;6.10;1.65;;;;;;;15.17;74.58;100979.19;5004348;28;20265;-82
2022/08/28 01:42:19;;;;;;;6.35;2.25;;;;;;;15.18;74.48;100986.19;4982243;28;20030;-82
2022/08/28 01:44:46;;;;;;;1.40;1.27;;;;;;;15.19;74.58;100987.03;5006922;28;20215;-81
2022/08/28 01:47:12;;;;;;;2.20;1.58;;;;;;;15.21;74.70;100982.38;4993508;28;20046;-82
2022/08/28 01:49:38;;;;;;;3.83;2.03;;;;;;;15.20;74.60;100992.19;4987525;28;20126;-82
2022/08/28 01:52:03;;;;;;;2.40;1.60;;;;;;;15.20;74.67;100991.34;5025865;28;20428;-82
2022/08/28 01:54:29;;;;;;;4.88;1.98;;;;;;;15.17;74.56;100989.00;4992837;28;20045;-83
2022/08/28 01:56:55;;;;;;;4.07;2.10;;;;;;;15.23;74.43;100997.19;4984085;28;20695;-82
2022/08/28 01:59:21;;;;;;;4.95;2.13;;;;;;;15.24;74.47;100988.19;5023289;28;20033;-82
2022/08/28 02:01:47;;;;;;;5.82;2.33;;;;;;;15.20;74.50;100986.88;4966051;28;20049;-82
2022/08/28 02:04:13;;;;;;;3.72;2.75;;;;;;;15.18;74.57;100985.38;4984925;28;20026;-82
2022/08/28 02:06:40;;;;;;;4.65;2.10;;;;;;;15.10;74.57;100984.31;4970793;28;20096;-83
2022/08/28 02:09:07;;;;;;;3.42;2.33;;;;;;;15.10;74.74;100984.31;4967754;28;20026;-82
2022/08/28 02:11:33;;;;;;;5.40;2.45;;;;;;;15.11;74.96;100985.97;4978827;28;20030;-84
2022/08/28 02:14:02;;;;;;;4.05;2.75;;;;;;;15.08;74.85;100983.63;4991679;28;20118;-82
2022/08/28 02:16:28;;;;;;;3.08;2.38;;;;;;;15.09;74.66;100989.81;4971870;28;20031;-82
2022/08/28 02:18:54;;;;;;;4.47;2.20;;;;;;;15.02;74.85;100986.13;5001224;28;20042;-84
2022/08/28 02:21:20;;;;;;;4.10;2.47;;;;;;;14.99;75.00;100988.13;4974300;28;20042;-82
2022/08/28 02:23:46;;;;;;;3.35;1.92;;;;;;;14.99;75.30;100984.59;5009944;28;20034;-81
2022/08/28 02:26:13;;;;;;;5.85;2.63;;;;;;;15.02;74.77;100992.28;4971723;28;20036;-82
2022/08/28 02:28:40;;;;;;;6.45;2.40;;;;;;;14.97;75.09;100978.63;5001042;28;20035;-81
2022/08/28 02:31:09;;;;;;;3.90;2.45;;;;;;;14.93;75.09;100978.09;5000363;28;20049;-82
2022/08/28 02:33:37;;;;;;;3.78;2.45;;;;;;;14.94;75.29;100981.63;4984353;28;20042;-82
2022/08/28 02:36:06;;;;;;;3.92;2.30;;;;;;;14.94;75.28;100978.97;5001302;28;20060;-82
2022/08/28 02:38:31;;;;;;;6.03;2.40;;;;;;;14.95;75.07;100980.63;4988711;28;20049;-82
2022/08/28 02:40:57;;;;;;;6.82;2.33;;;;;;;14.91;75.06;100976.63;4985812;28;20030;-82
2022/08/28 02:43:23;;;;;;;8.82;2.63;;;;;;;14.95;75.23;100977.94;5020066;28;20057;-82
2022/08/28 02:45:48;;;;;;;6.28;2.60;;;;;;;14.93;75.00;100978.09;4999117;28;20084;-81
2022/08/28 02:48:14;;;;;;;4.20;2.80;;;;;;;14.96;74.91;100982.28;4990281;28;20084;-82
2022/08/28 02:50:40;;;;;;;7.82;3.08;;;;;;;14.96;74.81;100983.13;5027428;28;20026;-82
2022/08/28 02:53:06;;;;;;;4.35;2.53;;;;;;;14.91;74.77;100984.59;4954784;28;23949;-82
2022/08/28 02:55:32;;;;;;;4.68;2.15;;;;;;;14.89;74.97;100984.75;4991092;28;20041;-82
2022/08/28 02:57:58;;;;;;;9.93;3.20;;;;;;;14.87;74.80;100981.41;4967699;28;20108;-81
2022/08/28 03:00:25;;;;;;;5.40;2.40;;;;;;;14.86;74.91;100982.38;5015312;28;20408;-81
2022/08/28 03:02:52;;;;;;;4.45;2.47;;;;;;;14.81;74.88;100982.88;4991302;28;20440;-82
2022/08/28 03:05:21;;;;;;;2.10;2.00;;;;;;;14.76;75.01;100987.81;5006227;28;20034;-81
2022/08/28 03:07:47;;;;;;;4.28;2.33;;;;;;;14.72;75.19;100981.13;4966960;28;20116;-82
2022/08/28 03:10:14;;;;;;;2.53;2.22;;;;;;;14.69;75.53;100989.44;5008440;28;20038;-82
2022/08/28 03:12:39;;;;;;;3.47;2.30;;;;;;;14.65;75.43;100978.28;4990972;28;20030;-82
2022/08/28 03:15:07;;;;;;;4.88;3.00;;;;;;;14.70;75.63;100986.59;4989985;28;20516;-83
2022/08/28 03:17:34;;;;;;;5.65;2.85;;;;;;;14.72;75.22;100986.44;4953982;28;20155;-82
2022/08/28 03:20:00;;;;;;;10.45;2.60;;;;;;;14.72;75.34;100987.28;5025702;28;20103;-82
2022/08/28 03:25:11;;;;;;;4.13;2.30;;;;;;;14.80;75.13;100977.69;4994192;28;20037;-83
2022/08/28 03:27:37;;;;;;;3.65;2.92;;;;;;;14.84;74.90;100987.88;5010807;28;20484;-83
2022/08/28 03:30:06;;;;;;;4.00;2.47;;;;;;;14.86;74.94;100983.22;4985171;28;20129;-81
2022/08/28 03:32:32;;;;;;;5.70;2.50;;;;;;;14.88;74.76;100991.06;4978611;28;20034;-81
2022/08/28 03:34:58;;;;;;;5.38;2.28;;;;;;;14.90;74.70;100990.91;5026796;28;20045;-83
2022/08/28 03:37:24;;;;;;;3.88;2.53;;;;;;;14.89;74.43;100987.41;5010440;28;20049;-81
2022/08/28 03:39:50;;;;;;;3.92;2.50;;;;;;;14.86;74.53;100993.03;4994287;28;20032;-82
2022/08/28 03:42:16;;;;;;;3.53;2.13;;;;;;;14.84;74.72;100990.53;4973812;28;20034;-83
2022/08/28 03:44:42;;;;;;;5.57;2.30;;;;;;;14.81;74.74;100988.19;4994877;28;20040;-82
2022/08/28 03:47:08;;;;;;;3.63;2.00;;;;;;;14.84;74.79;100989.72;4974940;28;20045;-82
2022/08/28 03:49:33;;;;;;;6.47;2.10;;;;;;;14.86;74.68;100987.72;4986258;28;20041;-83
2022/08/28 03:51:59;;;;;;;3.25;2.13;;;;;;;14.82;74.84;100994.34;5010083;28;20034;-82
2022/08/28 03:54:25;;;;;;;3.20;2.08;;;;;;;14.82;75.01;100984.56;4986129;28;20045;-81
2022/08/28 03:56:51;;;;;;;8.30;2.47;;;;;;;14.84;74.97;100987.88;4972676;28;20031;-82
2022/08/28 03:59:20;;;;;;;6.47;2.15;;;;;;;14.85;74.96;100983.38;5003204;28;20042;-82
2022/08/28 04:01:46;;;;;;;5.13;2.60;;;;;;;14.84;74.85;100982.53;4988031;28;20026;-82
2022/08/28 04:04:12;;;;;;;4.57;2.58;;;;;;;14.83;74.74;100977.38;5020858;28;20037;-82
2022/08/28 04:06:37;;;;;;;5.93;2.17;;;;;;;14.82;74.93;100986.38;5010417;28;20060;-83
2022/08/28 04:09:03;;;;;;;5.38;2.35;;;;;;;14.78;75.06;100982.34;4992158;28;20049;-82
2022/08/28 04:11:29;;;;;;;5.93;2.85;;;;;;;14.74;75.19;100987.97;4993789;28;20066;-82
2022/08/28 04:13:56;;;;;;;3.33;2.20;;;;;;;14.71;75.24;100984.78;4985429;28;20385;-82
2022/08/28 04:16:23;;;;;;;3.83;2.38;;;;;;;14.69;75.15;100984.09;4998546;28;20176;-82
2022/08/28 04:18:49;;;;;;;4.68;2.53;;;;;;;14.66;75.21;100987.09;4986402;28;20033;-82
2022/08/28 04:21:19;;;;;;;3.70;2.30;;;;;;;14.64;75.27;100990.75;4993011;28;20105;-82
2022/08/28 04:23:46;;;;;;;8.18;2.50;;;;;;;14.63;75.32;100991.75;4958281;28;20034;-83
2022/08/28 04:26:14;;;;;;;3.45;2.15;;;;;;;14.63;75.25;100985.59;4969844;28;20383;-82
2022/08/28 04:28:41;;;;;;;4.55;2.55;;;;;;;14.60;75.42;100981.44;5000511;28;20034;-83
2022/08/28 04:31:07;;;;;;;4.18;2.17;;;;;;;14.57;75.45;100991.53;4992398;28;20091;-83
2022/08/28 04:33:33;;;;;;;5.85;2.45;;;;;;;14.55;75.49;100989.03;4969840;28;20041;-82
2022/08/28 04:36:07;;;;;;;4.10;2.50;;;;;;;14.54;75.42;100989.19;5002638;28;20041;-82
2022/08/28 04:38:33;;;;;;;3.30;1.88;;;;;;;14.49;75.63;100989.66;4980439;28;20033;-83
2022/08/28 04:41:03;;;;;;;2.95;1.90;;;;;;;14.46;75.70;100982.81;4963798;28;20046;-82
2022/08/28 04:43:29;;;;;;;2.72;2.20;;;;;;;14.46;75.88;100988.13;4997077;28;20480;-82
2022/08/28 04:45:55;;;;;;;4.22;2.22;;;;;;;14.42;75.96;100980.63;5008510;28;20040;-82
2022/08/28 04:48:21;;;;;;;6.20;3.20;;;;;;;14.39;76.09;100987.94;4980948;28;20125;-82
2022/08/28 04:50:48;;;;;;;3.88;2.05;;;;;;;14.39;76.25;100987.94;4991705;28;20038;-83
2022/08/28 04:53:16;;;;;;;4.32;1.98;;;;;;;14.37;76.33;100983.75;4970724;28;20105;-83
2022/08/28 04:55:44;;;;;;;3.15;1.90;;;;;;;14.39;76.31;100989.75;5000712;28;20759;-82
2022/08/28 04:58:11;;;;;;;4.85;2.10;;;;;;;14.40;76.29;100986.09;4995329;28;20085;-83
2022/08/28 05:00:44;;;;;;;2.75;1.83;;;;;;;14.38;76.09;100986.25;5005740;28;20083;-82
2022/08/28 05:03:10;;;;;;;4.15;1.98;;;;;;;14.37;76.06;100986.41;4995903;28;20034;-83
2022/08/28 05:05:43;;;;;;;4.78;1.90;;;;;;;14.37;75.88;100981.09;5012348;28;20046;-83
2022/08/28 05:08:11;;;;;;;5.45;1.85;;;;;;;14.34;75.95;100987.56;4983170;28;20050;-82
2022/08/28 05:10:39;;;;;;;2.85;1.90;;;;;;;14.29;75.82;100991.66;4982852;28;20046;-82
2022/08/28 05:13:05;;;;;;;3.15;1.63;;;;;;;14.14;75.78;100992.25;4981226;28;20497;-83
2022/08/28 05:15:32;;;;;;;5.47;2.10;;;;;;;14.01;76.57;100985.50;5010961;28;20041;-82
2022/08/28 05:17:58;;;;;;;2.85;1.80;;;;;;;13.94;76.62;100992.41;5011913;28;20038;-81
2022/08/28 05:20:24;;;;;;;3.72;2.17;;;;;;;13.88;76.77;100991.22;4984200;28;20038;-82
2022/08/28 05:22:50;;;;;;;3.65;2.00;;;;;;;13.75;76.87;100988.09;4988795;28;20392;-83
2022/08/28 05:25:16;;;;;;;5.68;1.77;;;;;;;13.69;77.27;100994.88;4951856;28;20042;-82
2022/08/28 05:27:42;;;;;;;3.88;1.90;;;;;;;13.67;77.52;100998.63;4993173;28;20038;-82
2022/08/28 05:30:09;;;;;;;2.20;1.75;;;;;;;13.60;77.56;100999.25;4994730;28;20041;-80
2022/08/28 05:32:35;;;;;;;8.73;2.00;;;;;;;13.46;77.98;100992.59;4989890;28;20030;-82
2022/08/28 05:35:00;;;;;;;8.18;2.00;;;;;;;13.33;78.27;100992.94;4966752;28;20042;-82
2022/08/28 05:37:26;;;;;;;4.13;1.70;;;;;;;13.28;78.75;100996.06;5011652;28;20033;-82
2022/08/28 05:39:52;;;;;;;5.15;1.73;;;;;;;13.30;78.77;100992.44;4994880;28;20100;-82
2022/08/28 05:42:17;;;;;;;3.67;2.13;;;;;;;13.39;78.62;101004.81;4968390;28;20485;-82
2022/08/28 05:44:43;;;;;;;4.03;2.28;;;;;;;13.49;78.20;101005.56;5025500;28;20439;-83
2022/08/28 05:47:09;;;;;;;4.07;1.67;;;;;;;13.52;77.58;101002.66;4986285;28;20085;-82
2022/08/28 05:49:35;;;;;;;5.00;1.65;;;;;;;13.41;77.74;100997.53;4978341;28;20045;-83
2022/08/28 05:52:01;;;;;;;2.13;1.65;;;;;;;13.36;78.16;101000.63;4970568;28;20041;-83
2022/08/28 05:54:27;;;;;;;3.53;1.85;;;;;;;13.34;77.88;100999.09;5023613;28;20389;-83
2022/08/28 05:56:53;;;;;;;3.38;1.73;;;;;;;13.30;78.04;100997.75;4995692;28;20175;-82
2022/08/28 05:59:18;;;;;;;3.03;1.52;;;;;;;13.21;78.48;101004.75;4993919;28;20092;-81
2022/08/28 06:01:47;;;;;;;5.03;1.90;;;;;;;13.17;78.39;101006.88;4976460;28;20038;-81
2022/08/28 06:04:17;;;;;;;1.85;1.48;;;;;;;13.19;78.57;101012.88;4966262;28;20030;-82
2022/08/28 06:06:43;;;;;;;4.38;1.48;;;;;;;13.28;78.41;101013.81;4984146;28;20054;-83
2022/08/28 06:09:18;;;;;;;2.72;1.73;;;;;;;13.38;78.01;101016.41;4992514;28;20058;-83
2022/08/28 06:11:44;;;;;;;4.88;1.40;;;;;;;13.41;77.91;101016.09;5005189;28;20053;-83
2022/08/28 06:14:12;;;;;;;3.25;1.40;;;;;;;13.54;77.59;101020.28;4959926;28;20042;-83
2022/08/28 06:16:40;;;;;;;1.95;1.30;;;;;;;13.58;77.39;101024.28;5007451;28;20066;-83
2022/08/28 06:19:08;;;;;;;3.50;1.63;;;;;;;13.66;77.22;101029.69;4977419;28;20802;-83
2022/08/28 06:21:35;;;;;;;5.88;1.63;;;;;;;13.68;76.78;101018.91;4992421;28;20072;-83
2022/08/28 06:24:01;;;;;;;7.35;2.10;;;;;;;13.74;76.62;101024.44;4982923;28;20038;-84
2022/08/28 06:26:27;;;;;;;4.05;1.40;;;;;;;13.80;76.29;101024.84;4975311;28;20038;-82
2022/08/28 06:28:53;;;;;;;3.28;1.30;;;;;;;13.83;75.97;101024.53;5012047;28;20061;-82
2022/08/28 06:31:19;;;;;;;2.90;1.52;;;;;;;13.89;75.88;101035.41;4991816;28;20124;-82
2022/08/28 06:33:45;;;;;;;5.60;1.33;;;;;;;13.92;75.29;101030.78;4976533;28;20109;-83
2022/08/28 06:36:11;;;;;;;3.03;1.38;;;;;;;13.85;75.15;101031.38;4967037;28;20129;-82
2022/08/28 06:38:37;;;;;;;3.30;1.42;;;;;;;13.79;75.47;101032.00;4995740;28;20104;-83
2022/08/28 06:41:08;;;;;;;2.92;1.48;;;;;;;13.76;75.49;101037.59;5020308;28;20673;-82
2022/08/28 06:43:33;;;;;;;3.30;1.25;;;;;;;13.80;75.64;101032.81;5002251;28;20037;-82
2022/08/28 06:46:00;;;;;;;2.55;1.20;;;;;;;13.82;75.60;101039.66;4993138;28;20037;-82
2022/08/28 06:48:27;;;;;;;2.72;1.40;;;;;;;13.86;75.38;101041.00;5011438;28;20029;-82
2022/08/28 06:50:55;;;;;;;5.25;1.10;;;;;;;13.85;75.42;101041.16;5012318;28;20042;-82
2022/08/28 06:53:27;;;;;;;2.70;1.10;;;;;;;13.87;75.34;101039.19;4983103;28;20113;-83
2022/08/28 06:55:57;;;;;;;1.92;1.13;;;;;;;13.89;75.31;101042.53;4954458;28;20034;-82
2022/08/28 06:58:23;;;;;;;3.97;1.30;;;;;;;13.89;75.07;101048.69;4979166;28;20053;-82
2022/08/28 07:00:49;;;;;;;2.03;0.90;;;;;;;13.86;75.25;101048.13;5030979;28;20691;-83
2022/08/28 07:03:15;;;;;;;2.90;0.70;;;;;;;13.74;75.60;101051.00;5010625;28;20036;-82
2022/08/28 07:05:41;;;;;;;2.15;1.27;;;;;;;13.67;76.07;101054.41;4985205;28;20045;-83
2022/08/28 07:08:07;;;;;;;2.35;1.30;;;;;;;13.59;76.55;101053.34;4995424;28;20054;-82
2022/08/28 07:10:32;;;;;;;4.03;1.17;;;;;;;13.55;77.10;101048.50;5036790;28;20038;-82
2022/08/28 07:12:59;;;;;;;2.08;1.20;;;;;;;13.56;76.94;101052.81;5001275;28;20038;-83
2022/08/28 07:15:25;;;;;;;4.18;1.20;;;;;;;13.57;76.95;101057.97;5009785;28;20125;-83
2022/08/28 07:17:51;;;;;;;2.42;1.00;;;;;;;13.63;77.00;101057.38;4993857;28;20034;-82
2022/08/28 07:20:17;;;;;;;3.72;1.40;;;;;;;13.68;76.64;101056.13;5008903;28;20033;-82
2022/08/28 07:22:43;;;;;;;2.47;1.20;;;;;;;13.75;76.79;101057.16;4997882;28;20022;-83
2022/08/28 07:25:09;;;;;;;2.95;1.30;;;;;;;13.83;76.67;101062.56;4976797;28;20128;-82
2022/08/28 07:27:37;;;;;;;6.50;1.50;;;;;;;13.87;76.52;101060.47;4996581;28;20088;-82
2022/08/28 07:30:05;;;;;;;3.85;1.15;;;;;;;13.93;76.32;101057.19;4973879;28;20037;-82
2022/08/28 07:32:32;;;;;;;1.45;1.00;;;;;;;13.97;76.36;101053.25;4973447;28;20053;-84
2022/08/28 07:34:58;;;;;;;3.55;1.40;;;;;;;14.02;76.08;101058.09;4977843;28;20444;-82
2022/08/28 07:37:25;;;;;;;2.28;1.10;;;;;;;14.01;75.72;101057.25;4952716;28;20038;-83
2022/08/28 07:39:51;;;;;;;1.33;0.85;;;;;;;14.02;76.27;101061.59;4960873;28;20433;-82
2022/08/28 07:45:03;;;;;;;2.33;0.90;;;;;;;13.95;76.67;101070.34;4966813;28;20093;-83
2022/08/28 07:47:33;;;;;;;3.55;0.98;;;;;;;13.96;76.88;101069.34;4987664;28;20120;-83
2022/08/28 07:49:59;;;;;;;1.95;1.10;;;;;;;13.94;77.28;101072.16;5003188;28;20446;-81
2022/08/28 07:52:28;;;;;;;6.30;1.10;;;;;;;13.98;77.08;101070.03;4959997;28;20026;-81
2022/08/28 07:54:54;;;;;;;2.47;1.38;;;;;;;13.98;77.31;101070.03;4982617;28;20500;-81
2022/08/28 07:57:21;;;;;;;2.25;0.80;;;;;;;14.05;77.49;101067.59;4994077;28;20420;-83
2022/08/28 07:59:47;;;;;;;3.63;1.25;;;;;;;14.13;77.39;101068.50;5005276;28;20044;-83
2022/08/28 08:02:14;;;;;;;2.42;1.17;;;;;;;14.19;77.09;101074.22;5012457;28;20480;-83
2022/08/28 08:04:40;;;;;;;3.63;0.90;;;;;;;14.25;77.37;101070.94;5000497;28;20041;-81
2022/08/28 08:07:07;;;;;;;1.92;1.05;;;;;;;14.24;77.52;101071.91;4989433;28;20050;-81
2022/08/28 08:09:39;;;;;;;2.88;1.05;;;;;;;14.24;77.60;101077.22;5003029;28;20025;-82
2022/08/28 08:12:05;;;;;;;2.25;0.90;;;;;;;14.22;77.89;101073.91;4996154;28;20037;-83
2022/08/28 08:14:31;;;;;;;4.50;1.20;;;;;;;14.26;78.25;101072.59;5003606;28;20030;-82
2022/08/28 08:17:00;;;;;;;5.45;1.30;;;;;;;14.31;78.08;101072.13;4999015;28;20037;-83
2022/08/28 08:19:26;;;;;;;2.30;1.27;;;;;;;14.42;78.29;101073.72;5014280;28;20037;-82
2022/08/28 08:21:52;;;;;;;3.25;1.08;;;;;;;14.44;78.67;101080.56;4986111;28;20037;-83
2022/08/28 08:24:19;;;;;;;4.85;1.30;;;;;;;14.52;78.74;101079.78;4986737;28;20389;-81
2022/08/28 08:26:49;;;;;;;1.30;1.00;;;;;;;14.58;78.66;101083.66;5001598;28;20042;-81
2022/08/28 08:29:16;;;;;;;3.25;1.23;;;;;;;14.64;78.99;101083.03;5005719;28;20480;-83
2022/08/28 08:31:42;;;;;;;3.00;1.00;;;;;;;14.68;79.06;101089.72;4959170;28;20515;-83
2022/08/28 08:34:08;;;;;;;2.20;1.13;;;;;;;14.72;79.00;101088.41;4996321;28;20042;-83
2022/08/28 08:36:36;;;;;;;3.20;1.23;;;;;;;14.78;79.03;101084.28;4998883;28;20165;-83
2022/08/28 08:39:04;;;;;;;2.42;1.20;;;;;;;14.85;79.03;101087.19;4959976;28;20395;-84
2022/08/28 08:41:42;;;;;;;2.92;1.15;;;;;;;14.93;79.05;101083.75;4999389;28;20030;-83
2022/08/28 08:44:20;;;;;;;2.08;1.10;;;;;;;14.98;78.89;101092.94;4975062;28;20033;-83
2022/08/28 08:47:07;;;;;;;3.30;1.30;;;;;;;15.02;78.85;101092.63;4985682;28;20041;-82
2022/08/28 08:49:36;;;;;;;4.45;1.60;;;;;;;15.10;78.80;101092.63;5006691;28;20554;-82
2022/08/28 08:52:14;;;;;;;2.05;1.48;;;;;;;15.11;78.67;101089.81;4971458;28;20038;-83
2022/08/28 08:54:42;;;;;;;4.88;1.30;;;;;;;15.09;79.21;101085.66;4975862;28;20718;-81
2022/08/28 08:57:11;;;;;;;4.10;1.50;;;;;;;15.07;79.63;101092.97;5015356;28;20450;-81
2022/08/28 08:59:38;;;;;;;2.08;1.48;;;;;;;15.08;79.88;101090.13;4983683;28;20034;-79
2022/08/28 09:02:17;;;;;;;2.90;1.50;;;;;;;15.11;80.05;101092.47;5001952;28;20030;-83
2022/08/28 09:04:49;;;;;;;2.65;1.02;;;;;;;15.16;80.17;101086.69;5004078;28;20030;-82
2022/08/28 09:07:14;;;;;;;2.42;1.35;;;;;;;15.18;80.43;101090.03;4986872;28;20045;-82
2022/08/28 09:09:55;;;;;;;7.63;2.17;;;;;;;15.17;80.62;101092.84;5000202;28;20046;-82
2022/08/28 09:12:24;;;;;;;2.72;1.75;;;;;;;15.18;80.75;101098.00;5016015;28;20961;-82
2022/08/28 09:14:56;;;;;;;3.58;1.50;;;;;;;15.29;80.77;101098.75;4992560;28;20064;-81
2022/08/28 09:17:33;;;;;;;6.57;2.60;;;;;;;15.32;80.69;101093.91;5008307;28;20093;-82
2022/08/28 09:19:59;;;;;;;3.53;1.52;;;;;;;15.41;80.55;101094.81;4955110;28;20038;-83
2022/08/28 09:22:25;;;;;;;5.55;1.77;;;;;;;15.51;80.41;101094.69;4955520;28;20045;-81
2022/08/28 09:24:50;;;;;;;3.55;1.35;;;;;;;15.62;80.11;101094.34;4997236;28;20026;-82
2022/08/28 09:27:31;;;;;;;1.70;1.23;;;;;;;15.64;79.93;101096.84;4996429;28;20037;-81
2022/08/28 09:30:05;;;;;;;6.22;1.50;;;;;;;15.66;80.11;101089.56;5016777;28;20039;-82
2022/08/28 09:32:36;;;;;;;3.22;1.55;;;;;;;15.71;80.38;101099.72;4995099;28;20053;-82
2022/08/28 09:35:28;;;;;;;3.85;1.60;;;;;;;15.74;80.20;101094.91;4973982;28;20038;-82
2022/08/28 09:37:54;;;;;;;6.45;1.60;;;;;;;15.81;80.08;101097.75;5008408;28;20037;-81
2022/08/28 09:43:25;;;;;;;2.60;1.38;;;;;;;15.90;79.76;101105.75;4997753;28;20048;-81
2022/08/28 09:43:26;;;;;;;10.38;1.45;;;;;;;15.97;79.70;101101.47;5005796;28;20030;-83
2022/08/28 09:45:59;;;;;;;4.70;1.80;;;;;;;16.03;79.57;101100.84;4972923;28;20123;-80
2022/08/28 09:48:37;;;;;;;2.60;1.25;;;;;;;16.05;79.30;101100.66;4985129;28;20060;-81
2022/08/28 09:51:23;;;;;;;4.28;1.40;;;;;;;16.03;79.16;101098.16;5004465;28;20030;-82
2022/08/28 09:53:52;;;;;;;2.72;1.20;;;;;;;16.08;79.35;101095.84;4977190;28;20042;-82
2022/08/28 09:56:21;;;;;;;3.42;1.77;;;;;;;16.14;79.17;101098.81;4998604;28;20057;-81
2022/08/28 09:59:11;;;;;;;4.05;1.75;;;;;;;16.18;79.21;101103.66;5008650;28;20133;-83
2022/08/28 10:01:40;;;;;;;5.90;2.17;;;;;;;16.24;79.10;101102.19;5005148;28;20080;-81
2022/08/28 10:04:31;;;;;;;4.55;1.60;;;;;;;16.24;78.87;101112.84;4994425;28;20030;-81
2022/08/28 10:07:05;;;;;;;4.80;1.60;;;;;;;16.32;79.00;101098.69;4976991;28;20062;-84
2022/08/28 10:09:33;;;;;;;4.50;1.70;;;;;;;16.36;79.03;101108.00;5020454;28;20038;-82
2022/08/28 10:11:59;;;;;;;3.58;1.50;;;;;;;16.45;79.12;101107.00;4964767;28;20440;-82
2022/08/28 10:14:44;;;;;;;2.75;1.67;;;;;;;16.54;79.00;101115.03;5008566;28;20038;-83
2022/08/28 10:17:51;;;;;;;4.93;1.65;;;;;;;16.54;78.58;101107.00;4986180;28;20113;-82
2022/08/28 10:20:35;;;;;;;4.47;1.83;;;;;;;16.55;78.72;101104.19;5002019;28;20064;-82
2022/08/28 10:23:26;;;;;;;4.45;1.80;;;;;;;16.63;78.63;101103.34;4972237;28;20037;-82
2022/08/28 10:26:22;;;;;;;3.53;1.70;;;;;;;16.71;78.55;101108.66;4996755;28;20037;-82
2022/08/28 10:28:59;;;;;;;5.90;1.52;;;;;;;16.80;78.47;101104.13;5006165;28;20045;-81
2022/08/28 10:31:51;;;;;;;4.93;1.85;;;;;;;16.85;78.38;101112.47;5003077;28;20037;-82
2022/08/28 10:34:20;;;;;;;2.72;1.63;;;;;;;16.88;78.44;101115.81;4977480;28;20805;-81
2022/08/28 10:37:02;;;;;;;5.55;1.67;;;;;;;16.91;78.27;101108.31;4997554;28;20034;-81
2022/08/28 10:39:57;;;;;;;3.95;1.50;;;;;;;16.89;78.10;101104.13;5019435;28;20060;-81
2022/08/28 10:42:37;;;;;;;2.63;1.80;;;;;;;16.94;78.20;101112.47;5006065;28;20034;-81
2022/08/28 10:45:15;;;;;;;3.97;1.40;;;;;;;17.01;78.19;101105.44;4966177;28;20521;-82
2022/08/28 10:47:46;;;;;;;3.80;1.30;;;;;;;17.10;78.22;101112.44;4964260;28;20034;-81
2022/08/28 10:50:22;;;;;;;4.07;1.30;;;;;;;17.17;77.65;101107.25;5001294;28;20034;-80
2022/08/28 10:52:56;;;;;;;3.97;1.38;;;;;;;17.29;77.40;101104.22;4969957;28;20050;-80
2022/08/28 10:55:34;;;;;;;4.10;1.20;;;;;;;17.31;77.34;101099.53;4995979;28;20034;-80
2022/08/28 10:58:04;;;;;;;2.67;1.17;;;;;;;17.33;77.12;101100.19;4994503;28;20054;-81
2022/08/28 11:00:31;;;;;;;7.00;1.40;;;;;;;17.36;76.93;101105.19;4972874;28;20072;-80
2022/08/28 11:03:01;;;;;;;2.03;1.05;;;;;;;17.41;76.23;101104.66;5010962;28;20030;-81
2022/08/28 11:05:47;;;;;;;2.13;0.93;;;;;;;17.48;75.54;101109.16;4991564;28;20104;-82
2022/08/28 11:08:31;;;;;;;3.00;1.20;;;;;;;17.62;75.51;101112.09;4975920;28;20046;-82
2022/08/28 11:10:59;;;;;;;3.03;0.95;;;;;;;17.76;75.33;101109.69;4967499;28;20052;-82
2022/08/28 11:13:43;;;;;;;4.63;1.10;;;;;;;17.75;73.11;101108.00;5017603;28;20057;-81
2022/08/28 11:16:22;;;;;;;2.92;1.20;;;;;;;17.72;73.14;101107.38;4979761;28;20113;-81
2022/08/28 11:19:39;;;;;;;2.95;1.02;;;;;;;17.80;72.94;101108.31;4958913;28;20436;-81
2022/08/28 11:22:11;;;;;;;4.03;1.40;;;;;;;17.88;72.92;101105.63;4947485;28;20049;-80
2022/08/28 11:24:37;;;;;;;3.22;1.27;;;;;;;17.95;72.71;101103.03;4986618;28;20033;-81
2022/08/28 11:27:20;;;;;;;3.78;1.30;;;;;;;18.02;72.35;101109.38;5001043;28;20038;-81
2022/08/28 11:30:00;;;;;;;0.77;0.75;;;;;;;18.08;71.24;101111.31;4963629;28;20041;-81
2022/08/28 11:32:38;;;;;;;2.55;1.15;;;;;;;18.17;71.05;101104.09;4969153;28;20037;-81
2022/08/28 11:35:05;;;;;;;2.78;1.08;;;;;;;18.25;70.62;101115.75;5015653;28;20500;-81
2022/08/28 11:37:42;;;;;;;1.40;0.70;;;;;;;18.32;69.48;101108.66;4996042;28;20112;-81
2022/08/28 11:40:40;;;;;;;3.00;1.10;;;;;;;18.23;67.10;101108.72;4976957;28;20048;-80
2022/08/28 11:43:15;;;;;;;3.38;0.90;;;;;;;18.28;68.14;101107.38;4991384;28;20026;-81
2022/08/28 11:45:46;;;;;;;2.43;0.70;;;;;;;18.34;67.49;101106.66;4972715;28;20084;-81
2022/08/28 11:48:22;;;;;;;1.55;0.90;;;;;;;18.36;66.78;101110.00;4985407;28;20076;-82